Alto Springs, Texas
Current Conditions -  °F | °C
As of 12:15 PM on Wednesday 26 Nov 2014 (Local Time) from KLXY Reporting Station
Clear Clear  
Wind Chill: 63°   Ceiling: Unl
Heat Index: 63°   Visibility: 10mi
Dew Point: 31°   Wind: 8mph
Humidity: 30%   Direction: 280°W
Pressure: 30.16"   Gusts: NA
Location:  31.3327°N, 96.6013°W
Report Text: KLXY 261815Z AUTO 28007KT 10SM CLR 17/00 A3016 RMK AO2 T01721004
Loading
Personal Weather Stations






























Interactive Weather Map New forecast layout! Learn more

10-Day Weather Forecast

Advertisements
Track Severe Weather on mobile